Time;durP1;ratioP1;P1;durP2;ratioP2;P2;SDS_P1;SDS_P2;PMS_P1;PMS_P2;Temp;Humidity;BMP_temperature;BMP_pressure;BME280_temperature;BME280_humidity;BME280_pressure;Samples;Min_cycle;Max_cycle;Signal;HPM_P1;HPM_P2
2022/07/25 00:00:27;;;;;;;;;;;;;;;28.44;43.98;99453.31;3167403;28;19930;-70
2022/07/25 00:01:59;;;;;;;;;;;;;;;28.43;44.87;99459.69;3167781;28;19946;-72
2022/07/25 00:03:30;;;;;;;;;;;;;;;28.40;43.87;99462.72;3159547;28;19931;-71
2022/07/25 00:05:02;;;;;;;;;;;;;;;28.30;44.51;99458.50;3168724;28;19924;-71
2022/07/25 00:06:34;;;;;;;;;;;;;;;28.13;45.91;99473.19;3168714;28;20002;-70
2022/07/25 00:08:05;;;;;;;;;;;;;;;27.96;46.90;99469.09;3166820;28;20356;-71
2022/07/25 00:09:37;;;;;;;;;;;;;;;27.66;48.54;99474.50;3160736;28;19928;-70
2022/07/25 00:11:07;;;;;;;;;;;;;;;27.37;49.56;99475.38;3158293;28;19928;-70
2022/07/25 00:12:39;;;;;;;;;;;;;;;27.11;51.56;99473.94;3164884;28;19930;-70
2022/07/25 00:14:11;;;;;;;;;;;;;;;26.88;51.85;99479.34;3158773;28;19924;-69
2022/07/25 00:15:43;;;;;;;;;;;;;;;26.55;53.16;99478.84;3163127;28;19928;-70
2022/07/25 00:17:15;;;;;;;;;;;;;;;26.30;53.93;99491.53;3165025;28;19923;-71
2022/07/25 00:18:46;;;;;;;;;;;;;;;26.07;53.87;99497.69;3163391;28;19931;-70
2022/07/25 00:20:18;;;;;;;;;;;;;;;25.94;53.91;99489.44;3163928;28;20413;-71
2022/07/25 00:21:50;;;;;;;;;;;;;;;25.83;53.12;99501.34;3158928;28;19924;-71
2022/07/25 00:23:21;;;;;;;;;;;;;;;25.79;53.78;99494.66;3167067;28;19924;-73
2022/07/25 00:24:52;;;;;;;;;;;;;;;25.75;53.05;99497.84;3168424;28;20280;-72
2022/07/25 00:26:24;;;;;;;;;;;;;;;25.78;53.14;99508.16;3168834;28;20461;-72
2022/07/25 00:27:55;;;;;;;;;;;;;;;25.73;53.53;99506.00;3168856;28;20282;-72
2022/07/25 00:29:28;;;;;;;;;;;;;;;25.69;53.59;99509.22;3168335;28;19928;-72
2022/07/25 00:30:59;;;;;;;;;;;;;;;25.69;52.20;99504.69;3168642;28;19927;-72
2022/07/25 00:32:30;;;;;;;;;;;;;;;25.67;51.79;99509.38;3169236;28;19927;-72
2022/07/25 00:34:02;;;;;;;;;;;;;;;25.65;50.60;99509.56;3169906;28;20258;-71
2022/07/25 00:35:34;;;;;;;;;;;;;;;25.65;49.63;99517.56;3164206;28;19989;-71
2022/07/25 00:37:05;;;;;;;;;;;;;;;25.68;49.97;99518.22;3164852;28;19950;-71
2022/07/25 00:38:37;;;;;;;;;;;;;;;25.71;49.50;99509.88;3165425;28;19924;-71
2022/07/25 00:40:08;;;;;;;;;;;;;;;25.71;49.33;99502.69;3164711;28;19932;-71
2022/07/25 00:41:40;;;;;;;;;;;;;;;25.75;49.02;99514.66;3166581;28;19931;-71
2022/07/25 00:43:11;;;;;;;;;;;;;;;25.76;49.00;99520.84;3165477;28;19931;-71
2022/07/25 00:44:44;;;;;;;;;;;;;;;25.74;49.71;99514.88;3165722;28;19924;-71
2022/07/25 00:46:16;;;;;;;;;;;;;;;25.73;49.34;99507.84;3166453;28;19924;-71
2022/07/25 00:47:48;;;;;;;;;;;;;;;25.75;48.78;99509.34;3166631;28;19930;-71
2022/07/25 00:49:18;;;;;;;;;;;;;;;25.78;48.79;99513.50;3167478;28;20431;-71
2022/07/25 00:50:50;;;;;;;;;;;;;;;25.80;48.56;99511.50;3166937;28;19924;-71
2022/07/25 00:52:22;;;;;;;;;;;;;;;25.85;48.37;99498.47;3162369;28;19947;-71
2022/07/25 00:53:54;;;;;;;;;;;;;;;25.88;48.30;99484.78;3160686;28;19935;-71
2022/07/25 00:55:25;;;;;;;;;;;;;;;25.92;47.94;99496.78;3160203;28;19935;-72
2022/07/25 00:56:57;;;;;;;;;;;;;;;25.95;48.04;99483.09;3166505;28;19931;-73
2022/07/25 00:58:29;;;;;;;;;;;;;;;26.00;48.42;99482.53;3168922;28;19931;-71
2022/07/25 01:00:02;;;;;;;;;;;;;;;26.01;48.00;99482.38;3169384;28;19982;-70
2022/07/25 01:01:35;;;;;;;;;;;;;;;26.03;48.14;99484.88;3170142;28;19935;-71
2022/07/25 01:03:06;;;;;;;;;;;;;;;26.04;47.79;99482.03;3170495;28;19928;-71
2022/07/25 01:04:38;;;;;;;;;;;;;;;26.05;47.43;99486.34;3170822;28;19931;-71
2022/07/25 01:06:09;;;;;;;;;;;;;;;26.05;47.43;99491.69;3169027;28;19989;-71
2022/07/25 01:07:41;;;;;;;;;;;;;;;26.04;46.95;99486.53;3171997;28;19935;-71
2022/07/25 01:09:12;;;;;;;;;;;;;;;26.02;47.11;99491.22;3154116;28;19924;-71
2022/07/25 01:10:44;;;;;;;;;;;;;;;25.98;47.36;99493.41;3155658;28;19981;-71
2022/07/25 01:12:16;;;;;;;;;;;;;;;25.95;46.98;99484.94;3163706;28;19924;-72
2022/07/25 01:13:47;;;;;;;;;;;;;;;25.97;46.52;99486.44;3165733;28;19935;-71
2022/07/25 01:15:21;;;;;;;;;;;;;;;26.02;46.08;99489.38;3161434;28;19932;-71
2022/07/25 01:16:52;;;;;;;;;;;;;;;26.05;45.69;99491.69;3167280;28;20408;-71
2022/07/25 01:18:23;;;;;;;;;;;;;;;26.09;45.54;99486.84;3165868;28;20321;-71
2022/07/25 01:19:54;;;;;;;;;;;;;;;26.12;45.46;99490.97;3169318;28;20030;-71
2022/07/25 01:21:27;;;;;;;;;;;;;;;26.11;45.75;99487.47;3160048;28;19953;-72
2022/07/25 01:22:59;;;;;;;;;;;;;;;26.13;45.72;99490.00;3170370;28;20324;-72
2022/07/25 01:24:30;;;;;;;;;;;;;;;26.13;45.72;99480.13;3170099;28;19935;-71
2022/07/25 01:26:02;;;;;;;;;;;;;;;26.14;45.71;99487.13;3169859;28;19923;-72
2022/07/25 01:27:33;;;;;;;;;;;;;;;26.17;45.72;99475.28;3170174;28;19935;-71
2022/07/25 01:29:05;;;;;;;;;;;;;;;26.19;45.59;99475.94;3170712;28;19924;-71
2022/07/25 01:30:37;;;;;;;;;;;;;;;26.20;45.67;99477.59;3171141;28;19924;-72
2022/07/25 01:32:08;;;;;;;;;;;;;;;26.22;45.01;99478.25;3167380;28;19935;-71
2022/07/25 01:33:40;;;;;;;;;;;;;;;26.22;45.34;99472.91;3170698;28;19923;-71
2022/07/25 01:35:11;;;;;;;;;;;;;;;26.25;45.48;99473.38;3169083;28;19924;-71
2022/07/25 01:36:44;;;;;;;;;;;;;;;26.26;45.28;99464.34;3159652;28;19924;-71
2022/07/25 01:38:16;;;;;;;;;;;;;;;26.25;45.45;99453.88;3167883;28;20036;-72
2022/07/25 01:39:48;;;;;;;;;;;;;;;26.23;45.93;99450.53;3166556;28;19924;-71
2022/07/25 01:41:19;;;;;;;;;;;;;;;26.22;46.23;99447.03;3165875;28;19923;-71
2022/07/25 01:42:51;;;;;;;;;;;;;;;26.17;45.96;99438.72;3167488;28;19931;-71
2022/07/25 01:44:22;;;;;;;;;;;;;;;26.22;46.02;99452.38;3167627;28;19984;-71
2022/07/25 01:45:54;;;;;;;;;;;;;;;26.23;46.09;99448.69;3167123;28;19939;-71
2022/07/25 01:47:26;;;;;;;;;;;;;;;26.24;46.00;99445.03;3165609;28;19928;-71
2022/07/25 01:48:57;;;;;;;;;;;;;;;26.26;46.13;99448.34;3169485;28;19924;-71
2022/07/25 01:50:29;;;;;;;;;;;;;;;26.31;45.84;99450.47;3165589;28;20153;-71
2022/07/25 01:52:02;;;;;;;;;;;;;;;26.34;45.80;99447.44;3159503;28;20466;-71
2022/07/25 01:53:33;;;;;;;;;;;;;;;26.35;46.17;99440.25;3162038;28;20336;-71
2022/07/25 01:55:05;;;;;;;;;;;;;;;26.34;45.80;99439.44;3159835;28;19924;-71
2022/07/25 01:56:36;;;;;;;;;;;;;;;26.33;46.17;99438.63;3163055;28;19981;-71
2022/07/25 01:58:07;;;;;;;;;;;;;;;26.33;46.30;99432.44;3168913;28;20018;-71
2022/07/25 01:59:41;;;;;;;;;;;;;;;26.32;46.44;99425.44;3168748;28;20211;-71
2022/07/25 02:01:12;;;;;;;;;;;;;;;26.31;46.36;99423.78;3163921;28;20294;-71
2022/07/25 02:02:44;;;;;;;;;;;;;;;26.29;46.72;99415.94;3164930;28;19924;-71
2022/07/25 02:04:15;;;;;;;;;;;;;;;26.29;46.73;99415.94;3152910;28;19924;-71
2022/07/25 02:05:46;;;;;;;;;;;;;;;26.29;46.77;99407.94;3171434;28;19953;-72
2022/07/25 02:07:19;;;;;;;;;;;;;;;26.29;46.80;99399.94;3161331;28;20629;-73
2022/07/25 02:08:51;;;;;;;;;;;;;;;26.26;46.64;99396.78;3165987;28;19924;-73
2022/07/25 02:10:22;;;;;;;;;;;;;;;26.24;46.95;99391.66;3164901;28;20352;-72
2022/07/25 02:11:54;;;;;;;;;;;;;;;26.23;47.10;99381.13;3160656;28;19924;-72
2022/07/25 02:13:26;;;;;;;;;;;;;;;26.19;47.02;99380.69;3165932;28;20411;-73
2022/07/25 02:14:58;;;;;;;;;;;;;;;26.21;46.81;99383.19;3164490;28;19924;-73
2022/07/25 02:16:29;;;;;;;;;;;;;;;26.21;46.77;99375.19;3168040;28;20412;-72
2022/07/25 02:18:02;;;;;;;;;;;;;;;26.23;46.77;99379.28;3169017;28;19996;-72
2022/07/25 02:19:33;;;;;;;;;;;;;;;26.24;46.46;99372.97;3169314;28;19928;-72
2022/07/25 02:21:06;;;;;;;;;;;;;;;26.28;46.23;99374.25;3159355;28;20359;-73
2022/07/25 02:22:38;;;;;;;;;;;;;;;26.31;46.73;99379.22;3167499;28;19924;-72
2022/07/25 02:24:10;;;;;;;;;;;;;;;26.34;46.77;99375.38;3169124;28;19934;-72
2022/07/25 02:25:42;;;;;;;;;;;;;;;26.35;46.61;99376.19;3169714;28;20340;-74
2022/07/25 02:27:13;;;;;;;;;;;;;;;26.34;46.93;99375.38;3169874;28;19992;-72
2022/07/25 02:28:45;;;;;;;;;;;;;;;26.35;46.66;99376.19;3169402;28;19931;-72
2022/07/25 02:30:15;;;;;;;;;;;;;;;26.33;47.09;99366.53;3170848;28;19924;-72
2022/07/25 02:31:47;;;;;;;;;;;;;;;26.36;46.71;99372.53;3171300;28;19931;-73
2022/07/25 02:33:19;;;;;;;;;;;;;;;26.34;46.94;99364.69;3169752;28;20524;-74
2022/07/25 02:34:50;;;;;;;;;;;;;;;26.30;47.09;99358.06;3166750;28;19951;-74
2022/07/25 02:36:22;;;;;;;;;;;;;;;26.25;47.12;99353.25;3158937;28;20015;-73
2022/07/25 02:37:54;;;;;;;;;;;;;;;26.21;47.30;99359.16;3164815;28;20423;-73
2022/07/25 02:39:25;;;;;;;;;;;;;;;26.20;47.02;99368.16;3165962;28;19924;-74
2022/07/25 02:40:56;;;;;;;;;;;;;;;26.19;47.11;99353.16;3164771;28;20373;-73
2022/07/25 02:42:27;;;;;;;;;;;;;;;26.18;47.14;99354.19;3166953;28;19928;-73
2022/07/25 02:43:59;;;;;;;;;;;;;;;26.18;46.95;99357.69;3167573;28;19924;-74
2022/07/25 02:45:31;;;;;;;;;;;;;;;26.18;46.94;99357.69;3167694;28;19934;-73
2022/07/25 02:47:02;;;;;;;;;;;;;;;26.13;47.02;99352.03;3169101;28;20352;-74
2022/07/25 02:48:34;;;;;;;;;;;;;;;26.13;46.62;99357.38;3170119;28;19928;-74
2022/07/25 02:50:06;;;;;;;;;;;;;;;26.14;46.79;99366.22;3170258;28;19924;-74
2022/07/25 02:51:37;;;;;;;;;;;;;;;26.17;46.42;99369.34;3161326;28;20321;-74
2022/07/25 02:53:10;;;;;;;;;;;;;;;26.21;46.55;99373.34;3161369;28;20321;-73
2022/07/25 02:54:42;;;;;;;;;;;;;;;26.24;46.44;99369.47;3159289;28;19924;-73
2022/07/25 02:56:14;;;;;;;;;;;;;;;26.24;46.22;99374.81;3159316;28;19935;-72
2022/07/25 02:57:44;;;;;;;;;;;;;;;26.26;46.09;99370.09;3168716;28;19931;-72
2022/07/25 02:59:16;;;;;;;;;;;;;;;26.25;46.60;99373.78;3162124;28;19931;-72
2022/07/25 03:00:47;;;;;;;;;;;;;;;26.25;46.29;99365.78;3170330;28;20085;-72
2022/07/25 03:02:19;;;;;;;;;;;;;;;26.29;46.10;99377.75;3169287;28;19923;-73
2022/07/25 03:03:51;;;;;;;;;;;;;;;26.31;46.29;99375.72;3169038;28;19932;-72
2022/07/25 03:05:22;;;;;;;;;;;;;;;26.32;46.29;99385.38;3170065;28;19935;-72
2022/07/25 03:06:54;;;;;;;;;;;;;;;26.32;46.14;99382.72;3170282;28;20269;-72
2022/07/25 03:08:27;;;;;;;;;;;;;;;26.34;46.27;99380.72;3164541;28;20423;-72
2022/07/25 03:09:58;;;;;;;;;;;;;;;26.34;46.14;99386.06;3152170;28;19939;-72
2022/07/25 03:11:30;;;;;;;;;;;;;;;26.31;46.04;99387.25;3159543;28;19924;-72
2022/07/25 03:13:02;;;;;;;;;;;;;;;26.33;46.21;99387.06;3166485;28;19923;-71
2022/07/25 03:14:32;;;;;;;;;;;;;;;26.32;46.21;99396.94;3167366;28;20321;-72
2022/07/25 03:16:04;;;;;;;;;;;;;;;26.25;46.59;99403.16;3167230;28;19924;-72
2022/07/25 03:17:36;;;;;;;;;;;;;;;26.25;46.51;99392.47;3166525;28;19936;-72
2022/07/25 03:19:09;;;;;;;;;;;;;;;26.25;46.43;99403.16;3167157;28;19924;-72
2022/07/25 03:20:40;;;;;;;;;;;;;;;26.27;46.41;99398.47;3155686;28;19950;-72
2022/07/25 03:22:12;;;;;;;;;;;;;;;26.24;46.67;99409.50;3163479;28;19931;-72
2022/07/25 03:23:45;;;;;;;;;;;;;;;26.22;46.79;99399.00;3164741;28;19935;-72
2022/07/25 03:25:16;;;;;;;;;;;;;;;26.20;47.16;99406.34;3162540;28;20010;-71
2022/07/25 03:26:48;;;;;;;;;;;;;;;26.18;46.75;99400.38;3169625;28;19931;-70
2022/07/25 03:28:20;;;;;;;;;;;;;;;26.20;46.59;99410.84;3169726;28;20416;-70
2022/07/25 03:29:51;;;;;;;;;;;;;;;26.20;46.71;99410.84;3170047;28;19935;-71
2022/07/25 03:31:23;;;;;;;;;;;;;;;26.19;47.16;99409.22;3170729;28;19951;-71
2022/07/25 03:32:54;;;;;;;;;;;;;;;26.16;47.16;99404.22;3158605;28;19981;-71
2022/07/25 03:34:26;;;;;;;;;;;;;;;26.14;47.23;99404.41;3162599;28;19963;-71
2022/07/25 03:35:58;;;;;;;;;;;;;;;26.16;47.00;99409.56;3161406;28;19924;-71
2022/07/25 03:37:29;;;;;;;;;;;;;;;26.19;46.78;99415.38;3160859;28;19989;-70
2022/07/25 03:39:02;;;;;;;;;;;;;;;26.21;47.00;99417.88;3165633;28;20009;-71
2022/07/25 03:40:35;;;;;;;;;;;;;;;26.21;46.73;99413.38;3163706;28;19928;-72
2022/07/25 03:42:06;;;;;;;;;;;;;;;26.25;46.75;99416.50;3166597;28;19928;-71
2022/07/25 03:43:38;;;;;;;;;;;;;;;26.27;46.55;99420.66;3158421;28;20342;-71
2022/07/25 03:45:10;;;;;;;;;;;;;;;26.27;46.29;99420.66;3157911;28;19924;-70
2022/07/25 03:46:41;;;;;;;;;;;;;;;26.29;46.24;99423.94;3168791;28;19931;-73
2022/07/25 03:48:13;;;;;;;;;;;;;;;26.29;46.24;99423.13;3167876;28;20332;-73
2022/07/25 03:49:44;;;;;;;;;;;;;;;26.26;46.25;99421.63;3168691;28;19924;-71
2022/07/25 03:51:16;;;;;;;;;;;;;;;26.15;45.81;99415.91;3163586;28;19924;-71
2022/07/25 03:52:47;;;;;;;;;;;;;;;26.21;45.91;99423.22;3161040;28;19924;-71
2022/07/25 03:54:19;;;;;;;;;;;;;;;26.20;45.96;99418.88;3158325;28;20026;-71
2022/07/25 03:55:51;;;;;;;;;;;;;;;26.17;45.88;99427.22;3158199;28;19932;-70
2022/07/25 03:57:23;;;;;;;;;;;;;;;26.16;46.00;99430.91;3168978;28;19924;-71
2022/07/25 03:58:54;;;;;;;;;;;;;;;26.10;45.96;99433.28;3166032;28;19935;-71
2022/07/25 04:00:26;;;;;;;;;;;;;;;26.09;46.26;99431.63;3166932;28;19924;-70
2022/07/25 04:01:57;;;;;;;;;;;;;;;26.09;46.33;99436.97;3169173;28;20289;-71
2022/07/25 04:03:29;;;;;;;;;;;;;;;26.10;46.22;99422.63;3169576;28;20706;-72
2022/07/25 04:05:00;;;;;;;;;;;;;;;26.09;46.37;99428.97;3170365;28;19924;-72
2022/07/25 04:06:32;;;;;;;;;;;;;;;26.10;46.34;99429.78;3165381;28;19928;-72
2022/07/25 04:08:04;;;;;;;;;;;;;;;26.04;46.31;99418.00;3165281;28;20420;-72
2022/07/25 04:09:37;;;;;;;;;;;;;;;26.08;46.11;99427.28;3158612;28;19927;-71
2022/07/25 04:11:09;;;;;;;;;;;;;;;26.10;45.98;99433.28;3158281;28;19935;-71
2022/07/25 04:12:40;;;;;;;;;;;;;;;26.10;46.37;99433.28;3166587;28;19931;-72
2022/07/25 04:14:12;;;;;;;;;;;;;;;26.13;46.05;99428.63;3165454;28;20258;-71
2022/07/25 04:15:43;;;;;;;;;;;;;;;26.14;46.31;99422.25;3166412;28;19928;-71
2022/07/25 04:17:15;;;;;;;;;;;;;;;26.18;45.88;99428.91;3166390;28;19923;-72
2022/07/25 04:18:47;;;;;;;;;;;;;;;26.19;46.06;99423.38;3167034;28;19923;-71
2022/07/25 04:20:18;;;;;;;;;;;;;;;26.21;45.98;99428.56;3164710;28;20461;-72
2022/07/25 04:21:49;;;;;;;;;;;;;;;26.22;46.04;99430.19;3164918;28;20293;-71
2022/07/25 04:23:20;;;;;;;;;;;;;;;26.21;46.38;99426.72;3168435;28;19924;-71
2022/07/25 04:24:53;;;;;;;;;;;;;;;26.23;46.06;99422.00;3168542;28;19928;-72
2022/07/25 04:26:25;;;;;;;;;;;;;;;26.25;46.12;99430.66;3169877;28;19928;-70
2022/07/25 04:27:56;;;;;;;;;;;;;;;26.26;46.54;99423.47;3170735;28;19927;-71
2022/07/25 04:29:28;;;;;;;;;;;;;;;26.27;46.33;99422.50;3169987;28;19927;-71
2022/07/25 04:31:00;;;;;;;;;;;;;;;26.29;46.12;99423.13;3160061;28;20337;-71
2022/07/25 04:32:31;;;;;;;;;;;;;;;26.30;46.19;99424.81;3160632;28;19985;-71
2022/07/25 04:34:03;;;;;;;;;;;;;;;26.32;46.42;99425.44;3164282;28;19928;-73
2022/07/25 04:35:35;;;;;;;;;;;;;;;26.37;45.82;99427.56;3162928;28;19928;-72
2022/07/25 04:37:06;;;;;;;;;;;;;;;26.39;45.92;99430.91;3157917;28;19924;-71
2022/07/25 04:38:38;;;;;;;;;;;;;;;26.36;45.90;99423.25;3166957;28;19931;-71
2022/07/25 04:40:10;;;;;;;;;;;;;;;26.43;46.11;99435.69;3164563;28;19931;-72
2022/07/25 04:41:42;;;;;;;;;;;;;;;26.44;46.18;99439.19;3167994;28;19976;-72
2022/07/25 04:43:12;;;;;;;;;;;;;;;26.44;46.27;99434.66;3167444;28;20006;-70
2022/07/25 04:44:44;;;;;;;;;;;;;;;26.45;46.17;99436.34;3166865;28;19984;-70
2022/07/25 04:46:18;;;;;;;;;;;;;;;26.46;46.01;99438.00;3167744;28;19924;-71
2022/07/25 04:47:49;;;;;;;;;;;;;;;26.48;46.25;99443.16;3168351;28;20338;-71
2022/07/25 04:49:21;;;;;;;;;;;;;;;26.49;45.80;99442.16;3158789;28;19923;-70
2022/07/25 04:50:52;;;;;;;;;;;;;;;26.54;45.93;99435.28;3166395;28;19988;-71
2022/07/25 04:52:24;;;;;;;;;;;;;;;26.55;46.09;99436.94;3161183;28;19927;-71
2022/07/25 04:53:55;;;;;;;;;;;;;;;26.56;46.46;99437.75;3158214;28;20247;-71
2022/07/25 04:55:29;;;;;;;;;;;;;;;26.58;46.00;99441.09;3157851;28;20298;-71
2022/07/25 04:57:03;;;;;;;;;;;;;;;26.60;46.17;99440.94;3165693;28;19935;-71
2022/07/25 04:58:34;;;;;;;;;;;;;;;26.59;46.28;99437.44;3167676;28;19931;-71
2022/07/25 05:00:07;;;;;;;;;;;;;;;26.61;45.92;99437.22;3164135;28;19923;-72
2022/07/25 05:01:39;;;;;;;;;;;;;;;26.64;45.92;99439.53;3163623;28;19993;-72
2022/07/25 05:03:10;;;;;;;;;;;;;;;26.69;46.26;99447.84;3164618;28;20397;-70
2022/07/25 05:04:42;;;;;;;;;;;;;;;26.71;46.19;99445.81;3168401;28;19931;-71
2022/07/25 05:06:14;;;;;;;;;;;;;;;26.73;46.02;99443.78;3167465;28;19939;-71
2022/07/25 05:07:45;;;;;;;;;;;;;;;26.76;46.03;99436.22;3165550;28;20360;-71
2022/07/25 05:09:17;;;;;;;;;;;;;;;26.82;45.62;99444.53;3158743;28;19928;-71
2022/07/25 05:10:50;;;;;;;;;;;;;;;26.83;45.83;99439.03;3157963;28;19998;-71
2022/07/25 05:12:21;;;;;;;;;;;;;;;26.86;45.53;99446.66;3162063;28;19938;-71
2022/07/25 05:13:53;;;;;;;;;;;;;;;26.90;45.76;99442.59;3165683;28;19938;-71
2022/07/25 05:15:23;;;;;;;;;;;;;;;26.93;45.54;99444.09;3165985;28;19924;-71
2022/07/25 05:16:55;;;;;;;;;;;;;;;26.93;45.90;99446.75;3164650;28;19950;-71
2022/07/25 05:18:26;;;;;;;;;;;;;;;26.94;45.64;99443.88;3160687;28;19924;-72
2022/07/25 05:19:58;;;;;;;;;;;;;;;26.93;46.13;99446.75;3167412;28;20511;-71
2022/07/25 05:21:30;;;;;;;;;;;;;;;26.94;45.89;99443.88;3157970;28;19924;-70
2022/07/25 05:23:01;;;;;;;;;;;;;;;26.94;45.92;99441.22;3151386;28;20357;-71
2022/07/25 05:24:33;;;;;;;;;;;;;;;26.95;45.85;99442.06;3169216;28;20783;-71
2022/07/25 05:26:06;;;;;;;;;;;;;;;26.96;46.26;99446.41;3169140;28;19977;-70
2022/07/25 05:27:38;;;;;;;;;;;;;;;26.96;45.85;99441.88;3169851;28;19924;-71
2022/07/25 05:29:10;;;;;;;;;;;;;;;26.97;46.10;99445.38;3169858;28;19923;-70
2022/07/25 05:30:42;;;;;;;;;;;;;;;26.98;46.47;99447.88;3163599;28;19931;-70
2022/07/25 05:32:14;;;;;;;;;;;;;;;26.99;46.27;99449.53;3158692;28;19969;-70
2022/07/25 05:33:45;;;;;;;;;;;;;;;27.00;46.58;99445.00;3165337;28;19985;-70
2022/07/25 05:35:17;;;;;;;;;;;;;;;27.04;46.28;99448.16;3166146;28;19928;-71
2022/07/25 05:36:48;;;;;;;;;;;;;;;27.07;46.29;99451.28;3157833;28;20329;-71
2022/07/25 05:38:20;;;;;;;;;;;;;;;27.09;46.50;99449.22;3169235;28;19924;-72
2022/07/25 05:39:52;;;;;;;;;;;;;;;27.12;46.33;99454.22;3166856;28;20006;-71
2022/07/25 05:41:25;;;;;;;;;;;;;;;27.14;46.44;99452.19;3167874;28;19928;-71
2022/07/25 05:42:56;;;;;;;;;;;;;;;27.19;46.02;99449.00;3168960;28;19928;-69
2022/07/25 05:44:28;;;;;;;;;;;;;;;27.22;45.84;99449.47;3169769;28;19973;-69
2022/07/25 05:46:00;;;;;;;;;;;;;;;27.27;45.93;99453.41;3168013;28;20316;-70
2022/07/25 05:47:32;;;;;;;;;;;;;;;27.30;46.04;99456.56;3165356;28;19931;-70
2022/07/25 05:49:04;;;;;;;;;;;;;;;27.36;45.96;99452.28;3163486;28;19928;-70
2022/07/25 05:50:36;;;;;;;;;;;;;;;27.40;45.60;99450.94;3171184;28;19934;-70
2022/07/25 05:52:08;;;;;;;;;;;;;;;27.43;45.59;99462.06;3157747;28;20063;-70
2022/07/25 05:53:39;;;;;;;;;;;;;;;27.48;45.60;99458.00;3161447;28;20319;-70
2022/07/25 05:55:12;;;;;;;;;;;;;;;27.50;45.65;99455.97;3165796;28;19924;-70
2022/07/25 05:56:45;;;;;;;;;;;;;;;27.53;45.53;99453.75;3161305;28;20008;-70
2022/07/25 05:58:16;;;;;;;;;;;;;;;27.55;45.73;99454.41;3170182;28;19924;-70
2022/07/25 05:59:48;;;;;;;;;;;;;;;27.55;45.59;99449.03;3168686;28;20586;-71
2022/07/25 06:01:20;;;;;;;;;;;;;;;27.58;45.57;99447.84;3171357;28;19924;-70
2022/07/25 06:02:51;;;;;;;;;;;;;;;27.63;45.38;99453.47;3171911;28;19930;-70
2022/07/25 06:04:23;;;;;;;;;;;;;;;27.65;45.35;99449.56;3170636;28;19935;-71
2022/07/25 06:05:55;;;;;;;;;;;;;;;27.65;45.64;99459.44;3166920;28;19924;-71
2022/07/25 06:07:26;;;;;;;;;;;;;;;27.65;45.61;99457.59;3153628;28;20449;-70
2022/07/25 06:08:58;;;;;;;;;;;;;;;27.68;45.34;99454.53;3160414;28;19932;-72
2022/07/25 06:10:29;;;;;;;;;;;;;;;27.71;45.29;99453.34;3159562;28;20367;-71
2022/07/25 06:12:02;;;;;;;;;;;;;;;27.76;45.41;99456.28;3163210;28;20493;-72
2022/07/25 06:13:34;;;;;;;;;;;;;;;27.83;45.30;99449.22;3162487;28;20342;-72
2022/07/25 06:15:06;;;;;;;;;;;;;;;27.88;44.89;99453.97;3167898;28;19924;-71
2022/07/25 06:16:38;;;;;;;;;;;;;;;27.96;44.75;99453.03;3168411;28;19924;-68
2022/07/25 06:18:10;;;;;;;;;;;;;;;27.99;44.72;99449.97;3168855;28;19999;-68
2022/07/25 06:19:41;;;;;;;;;;;;;;;28.01;44.84;99453.28;3170873;28;19923;-70
2022/07/25 06:21:13;;;;;;;;;;;;;;;28.00;44.39;99443.59;3160634;28;20316;-68
2022/07/25 06:22:44;;;;;;;;;;;;;;;28.02;44.46;99444.25;3169709;28;20328;-68
2022/07/25 06:24:16;;;;;;;;;;;;;;;28.11;44.60;99440.41;3170339;28;20427;-69
2022/07/25 06:25:47;;;;;;;;;;;;;;;28.17;44.65;99442.31;3171017;28;19989;-68
2022/07/25 06:27:20;;;;;;;;;;;;;;;28.22;44.05;99447.09;3169465;28;19928;-68
2022/07/25 06:28:52;;;;;;;;;;;;;;;28.23;44.15;99446.91;3164912;28;20313;-68
2022/07/25 06:30:23;;;;;;;;;;;;;;;28.27;43.92;99452.69;3153123;28;19935;-69
2022/07/25 06:31:55;;;;;;;;;;;;;;;28.24;44.03;99442.38;3167300;28;20008;-69
2022/07/25 06:33:27;;;;;;;;;;;;;;;28.23;44.08;99446.91;3167230;28;19923;-67
2022/07/25 06:34:58;;;;;;;;;;;;;;;28.23;44.17;99441.56;3167748;28;19927;-70
2022/07/25 06:36:30;;;;;;;;;;;;;;;28.23;44.12;99446.91;3159737;28;20289;-69
2022/07/25 06:38:01;;;;;;;;;;;;;;;28.30;44.32;99442.44;3166922;28;19947;-67
2022/07/25 06:39:33;;;;;;;;;;;;;;;28.37;44.00;99437.16;3167541;28;19924;-68
2022/07/25 06:41:03;;;;;;;;;;;;;;;28.42;43.95;99442.75;3161850;28;19928;-68
2022/07/25 06:42:39;;;;;;;;;;;;;;;28.50;43.78;99448.00;3167861;28;19999;-67
2022/07/25 06:44:10;;;;;;;;;;;;;;;28.60;43.60;99426.22;3167298;28;19992;-68
2022/07/25 06:45:46;;;;;;;;;;;;;;;28.64;43.35;99432.84;3169279;28;20319;-67
2022/07/25 06:47:17;;;;;;;;;;;;;;;28.65;43.56;99429.13;3169393;28;20018;-68
2022/07/25 06:48:49;;;;;;;;;;;;;;;28.62;43.66;99432.22;3162009;28;19985;-68
2022/07/25 06:50:21;;;;;;;;;;;;;;;28.68;43.43;99431.44;3170860;28;19923;-68
2022/07/25 06:51:52;;;;;;;;;;;;;;;28.74;43.44;99437.84;3164201;27;20010;-68
2022/07/25 06:53:24;;;;;;;;;;;;;;;28.77;43.35;99432.94;3155350;28;20373;-68
2022/07/25 06:54:55;;;;;;;;;;;;;;;28.83;43.03;99435.84;3159733;28;19923;-68
2022/07/25 06:56:30;;;;;;;;;;;;;;;28.83;42.91;99431.31;3167656;28;19924;-68
2022/07/25 06:58:03;;;;;;;;;;;;;;;28.85;43.11;99433.81;3169987;28;20381;-68
2022/07/25 06:59:34;;;;;;;;;;;;;;;28.85;42.86;99431.13;3170650;28;19928;-68
2022/07/25 07:01:06;;;;;;;;;;;;;;;28.92;42.71;99430.13;3170823;28;19989;-68
2022/07/25 07:02:47;;;;;;;;;;;;;;;28.97;42.33;99437.59;3170664;28;19988;-68
2022/07/25 07:04:18;;;;;;;;;;;;;;;29.07;42.50;99434.59;3158943;28;19985;-66
2022/07/25 07:05:50;;;;;;;;;;;;;;;29.08;42.02;99426.34;3165799;28;20312;-67
2022/07/25 07:07:22;;;;;;;;;;;;;;;29.13;41.83;99441.84;3164451;28;20451;-67
2022/07/25 07:08:53;;;;;;;;;;;;;;;29.15;42.05;99432.56;3161928;28;19950;-68
2022/07/25 07:10:25;;;;;;;;;;;;;;;29.20;42.07;99434.66;3158836;28;19928;-67
2022/07/25 07:11:57;;;;;;;;;;;;;;;29.20;42.09;99435.50;3158563;28;20354;-67
2022/07/25 07:13:30;;;;;;;;;;;;;;;29.21;42.10;99429.09;3159840;28;20309;-67
2022/07/25 07:15:02;;;;;;;;;;;;;;;29.25;41.58;99430.38;3166203;28;19931;-66
2022/07/25 07:16:33;;;;;;;;;;;;;;;29.34;41.78;99432.84;3158896;28;19928;-68
2022/07/25 07:18:05;;;;;;;;;;;;;;;29.42;41.62;99438.06;3169565;27;19923;-68
2022/07/25 07:19:37;;;;;;;;;;;;;;;29.48;41.66;99429.19;3170239;28;19931;-68
2022/07/25 07:21:09;;;;;;;;;;;;;;;29.57;41.24;99433.34;3160287;28;20332;-68
2022/07/25 07:22:44;;;;;;;;;;;;;;;29.65;41.01;99435.91;3168788;28;19931;-70
2022/07/25 07:24:16;;;;;;;;;;;;;;;29.71;40.44;99423.53;3164514;28;19924;-70
2022/07/25 07:25:47;;;;;;;;;;;;;;;29.74;40.45;99430.34;3170298;28;19942;-70
2022/07/25 07:27:19;;;;;;;;;;;;;;;29.80;40.43;99430.38;3170850;28;20397;-70
2022/07/25 07:28:54;;;;;;;;;;;;;;;29.84;40.26;99430.78;3160386;28;19954;-70
2022/07/25 07:30:26;;;;;;;;;;;;;;;29.84;40.23;99431.59;3158984;28;19928;-70
2022/07/25 07:31:57;;;;;;;;;;;;;;;29.88;40.10;99442.78;3166423;28;19924;-70
2022/07/25 07:33:29;;;;;;;;;;;;;;;29.92;40.38;99427.91;3166817;28;20008;-70
2022/07/25 07:35:01;;;;;;;;;;;;;;;29.92;40.12;99433.28;3167504;28;19924;-70
2022/07/25 07:36:33;;;;;;;;;;;;;;;29.90;40.22;99432.66;3158742;28;19928;-70
2022/07/25 07:38:04;;;;;;;;;;;;;;;29.96;39.93;99429.16;3156217;28;19924;-69
2022/07/25 07:39:36;;;;;;;;;;;;;;;29.99;39.86;99438.66;3165726;28;19924;-70
2022/07/25 07:41:07;;;;;;;;;;;;;;;30.02;39.40;99436.38;3165011;28;19924;-70
2022/07/25 07:42:40;;;;;;;;;;;;;;;30.07;39.42;99428.53;3167800;28;19928;-70
2022/07/25 07:44:13;;;;;;;;;;;;;;;30.11;39.27;99428.97;3160999;28;19924;-70
2022/07/25 07:45:45;;;;;;;;;;;;;;;30.16;39.32;99427.31;3162334;28;19985;-70
2022/07/25 07:47:17;;;;;;;;;;;;;;;30.19;39.04;99422.56;3169497;28;19989;-69
2022/07/25 07:48:48;;;;;;;;;;;;;;;30.24;39.25;99425.50;3163917;28;19928;-70
2022/07/25 07:50:21;;;;;;;;;;;;;;;30.25;38.87;99427.16;3170051;28;19928;-70
2022/07/25 07:51:53;;;;;;;;;;;;;;;30.25;38.26;99427.97;3160388;28;19924;-70
2022/07/25 07:55:42;;;;;;;;;;;;;;;30.24;38.50;99422.81;3158505;28;19928;-69
2022/07/25 07:57:07;;;;;;;;;;;;;;;30.36;38.04;99421.16;3167878;28;19927;-70
2022/07/25 07:58:38;;;;;;;;;;;;;;;30.44;38.07;99418.28;3168883;28;19923;-70
2022/07/25 08:00:12;;;;;;;;;;;;;;;30.52;37.42;99420.72;3169543;28;19924;-70